Clovis ASC Data

Date Time Air Temperature Relative Humidity Dewpoint Windchill Heat Index Wind Speed Wind Dir. Rain Solar Radiation Soil Temperature Soil Temperature
2m 2m 3m 3m 5cm 10cm
US/Mountain F % F F F MPH deg in MJ/m^2 F F
max avg avg
2021-04-08 00:05:00 47.6 42.6 26.0 44.1 47.6 7.4 8.1 7.0 89.5 94.2 0.00 0.0000000 60.2 63.9
2021-04-08 00:10:00 46.9 43.5 25.9 44.7 46.9 4.7 7.1 6.1 84.6 89.6 0.00 0.0000000 60.1 63.8
2021-04-08 00:15:00 46.5 44.0 25.8 44.5 46.5 4.4 4.9 4.4 48.4 73.1 0.00 0.0000000 60.0 63.7
2021-04-08 00:20:00 46.9 40.0 23.8 46.0 46.9 3.1 5.5 4.3 45.8 43.0 0.00 0.0000000 59.8 63.6
2021-04-08 00:25:00 47.0 38.4 23.0 44.5 47.0 5.3 5.3 3.8 340.6 5.3 0.00 0.0000000 59.7 63.5
2021-04-08 00:30:00 45.6 42.7 24.2 42.7 45.6 5.5 6.5 5.6 16.6 344.1 0.00 0.0000000 59.6 63.4
2021-04-08 00:35:00 47.0 41.3 24.7 44.9 47.0 4.7 6.0 4.4 23.8 13.2 0.00 0.0000000 59.4 63.3
2021-04-08 00:40:00 48.4 40.4 25.4 44.1 48.4 9.7 11.0 8.2 57.9 48.7 0.00 0.0000000 59.2 63.2
2021-04-08 00:45:00 48.2 42.1 26.2 44.0 48.2 9.4 9.9 9.1 69.6 70.1 0.00 0.0000000 59.1 63.1
2021-04-08 00:50:00 47.6 44.1 26.9 43.5 47.6 8.8 10.1 8.6 82.9 78.7 0.00 0.0000000 58.9 63.0
2021-04-08 00:55:00 47.5 45.2 27.3 43.2 47.5 9.4 9.4 8.2 74.9 75.4 0.00 0.0000000 58.8 62.9
2021-04-08 01:00:00 47.5 41.8 25.4 45.2 47.5 5.1 8.8 6.1 23.2 30.1 0.00 0.0000000 58.7 62.8
2021-04-08 01:05:00 47.3 43.1 25.9 43.7 47.3 7.4 7.4 5.7 51.1 33.1 0.00 0.0000000 58.6 62.6
2021-04-08 01:10:00 46.9 43.0 25.6 42.1 46.9 10.3 10.5 8.3 59.1 49.9 0.00 0.0000000 58.4 62.5
2021-04-08 01:15:00 46.2 44.1 25.5 42.1 46.2 8.0 10.1 8.5 71.5 63.6 0.00 0.0000000 58.3 62.4
2021-04-08 01:20:00 45.0 45.5 25.2 42.1 45.0 5.3 8.7 7.1 7.2 57.2 0.00 0.0000000 58.2 62.3
2021-04-08 01:25:00 45.1 45.6 25.3 41.4 45.1 6.7 8.8 5.1 7.3 15.8 0.00 0.0000000 58.1 62.3
2021-04-08 01:30:00 45.3 44.6 25.0 41.7 45.3 6.7 7.8 5.8 350.1 24.0 0.00 0.0000000 57.9 62.1
2021-04-08 01:35:00 44.9 46.6 25.6 40.8 44.9 7.4 8.3 5.6 7.9 12.9 0.00 0.0000000 57.8 62.0
2021-04-08 01:40:00 45.3 45.5 25.5 41.0 45.3 8.1 8.1 6.0 67.4 30.7 0.00 0.0000000 57.7 61.9
2021-04-08 01:45:00 45.3 45.2 25.3 43.0 45.3 4.6 8.5 6.2 55.6 40.5 0.00 0.0000000 57.6 61.8
2021-04-08 01:50:00 44.3 47.1 25.4 40.4 44.3 6.7 8.0 6.1 24.7 40.3 0.00 0.0000000 57.4 61.7
2021-04-08 01:55:00 44.3 47.0 25.4 41.0 44.3 5.8 7.4 5.7 44.5 32.5 0.00 0.0000000 57.3 61.7
2021-04-08 02:00:00 44.1 47.1 25.2 39.3 44.1 8.5 8.8 7.1 35.5 44.3 0.00 0.0000000 57.2 61.5
2021-04-08 02:05:00 42.4 48.3 24.2 38.6 42.4 6.0 7.4 6.4 62.0 55.6 0.00 0.0000000 57.1 61.4
2021-04-08 02:10:00 41.4 49.3 23.8 37.5 41.4 5.8 6.7 6.0 37.6 53.5 0.00 0.0000000 56.9 61.3
2021-04-08 02:15:00 42.3 49.6 24.8 38.8 42.3 5.6 7.2 6.4 26.5 46.5 0.00 0.0000000 56.8 61.3
2021-04-08 02:20:00 42.6 49.0 24.8 39.6 42.6 4.9 7.2 5.4 3.1 32.2 0.00 0.0000000 56.7 61.1
2021-04-08 02:25:00 43.0 50.0 25.6 39.3 43.0 6.0 7.2 5.2 51.8 25.5 0.00 0.0000000 56.6 61.1
2021-04-08 02:30:00 43.6 49.2 25.8 39.0 43.6 8.0 8.5 6.7 56.6 38.6 0.00 0.0000000 56.4 61.0
2021-04-08 02:35:00 42.3 49.9 24.9 37.5 42.3 7.6 8.7 7.9 63.2 55.6 0.00 0.0000000 56.3 60.9
2021-04-08 02:40:00 42.4 50.5 25.3 38.4 42.4 6.3 8.3 7.1 68.1 63.2 0.00 0.0000000 56.2 60.8
2021-04-08 02:45:00 41.9 52.5 25.8 38.6 41.9 5.1 6.5 5.5 66.0 66.5 0.00 0.0000000 56.1 60.6
2021-04-08 02:50:00 41.1 51.4 24.5 37.5 41.1 5.3 5.8 5.2 53.7 62.4 0.00 0.0000000 55.9 60.6
2021-04-08 02:55:00 41.7 51.1 24.9 37.9 41.7 5.8 6.2 5.6 63.4 52.5 0.00 0.0000000 55.8 60.5
2021-04-08 03:00:00 42.0 51.5 25.4 38.4 42.0 5.5 6.7 5.5 35.9 49.2 0.00 0.0000000 55.7 60.4
2021-04-08 03:05:00 42.3 50.2 25.0 39.2 42.3 4.9 6.7 5.7 51.6 54.7 0.00 0.0000000 55.6 60.3
2021-04-08 03:10:00 41.4 51.6 24.9 38.0 41.4 5.1 5.5 5.0 66.1 63.8 0.00 0.0000000 55.5 60.2
2021-04-08 03:15:00 41.1 50.7 24.2 37.2 41.1 5.8 6.0 5.6 62.1 63.2 0.00 0.0000000 55.3 60.1
2021-04-08 03:20:00 40.5 51.8 24.1 37.0 40.5 4.9 5.8 5.5 60.3 62.1 0.00 0.0000000 55.2 60.0
2021-04-08 03:25:00 40.4 53.3 24.7 37.6 40.4 4.2 4.9 4.2 61.5 63.7 0.00 0.0000000 55.1 59.9
2021-04-08 03:30:00 41.2 53.0 25.3 38.5 41.2 4.2 4.4 4.2 60.7 61.1 0.00 0.0000000 55.0 59.8
2021-04-08 03:35:00 41.7 52.2 25.4 38.8 41.7 4.6 4.6 4.1 54.0 56.9 0.00 0.0000000 54.8 59.7
2021-04-08 03:40:00 41.9 51.9 25.5 39.2 41.9 4.4 4.9 4.7 67.0 61.8 0.00 0.0000000 54.7 59.6
2021-04-08 03:45:00 40.9 51.7 24.5 37.4 40.9 5.3 5.3 4.8 66.0 66.5 0.00 0.0000000 54.6 59.5
2021-04-08 03:50:00 40.3 52.7 24.4 36.6 40.3 5.3 5.3 5.1 61.8 62.6 0.00 0.0000000 54.5 59.4
2021-04-08 03:55:00 40.6 53.6 25.0 37.5 40.6 4.6 5.6 5.2 61.2 63.7 0.00 0.0000000 54.4 59.3
2021-04-08 04:00:00 41.6 52.7 25.5 38.3 41.6 4.9 5.1 4.7 55.9 55.4 0.00 0.0000000 54.3 59.2
2021-04-08 04:05:00 43.0 51.7 26.5 40.5 43.0 4.4 5.8 5.2 55.9 47.7 0.00 0.0000000 54.2 59.1
2021-04-08 04:10:00 43.6 50.8 26.6 41.5 43.6 4.0 5.6 4.5 37.8 48.9 0.00 0.0000000 54.2 59.0
2021-04-08 04:15:00 43.8 50.8 26.7 41.9 43.8 3.7 5.1 4.3 32.6 42.5 0.00 0.0000000 54.1 58.9
2021-04-08 04:20:00 44.4 50.8 27.3 42.3 44.4 4.0 4.9 3.9 32.9 34.8 0.00 0.0000000 54.1 58.9
2021-04-08 04:25:00 45.1 50.0 27.6 43.6 45.1 3.5 4.7 3.8 38.0 41.3 0.00 0.0000000 54.0 58.7
2021-04-08 04:30:00 45.4 49.3 27.5 44.0 45.4 3.5 4.6 3.4 46.3 42.2 0.00 0.0000000 54.0 58.7
2021-04-08 04:35:00 44.7 49.1 26.8 43.6 44.7 3.1 3.7 3.1 8.5 31.3 0.00 0.0000000 54.0 58.6
2021-04-08 04:40:00 43.7 51.3 26.9 41.0 43.7 4.7 5.1 3.8 345.9 4.3 0.00 0.0000000 53.9 58.6
2021-04-08 04:45:00 42.2 53.3 26.4 40.1 42.2 3.7 6.0 4.7 349.9 344.2 0.00 0.0000000 53.9 58.5
2021-04-08 04:50:00 41.8 54.8 26.7 38.6 41.8 4.9 4.9 4.3 349.1 350.9 0.00 0.0000000 53.9 58.4
2021-04-08 04:55:00 41.7 54.5 26.5 38.5 41.7 4.9 5.1 4.6 350.8 356.4 0.00 0.0000000 53.8 58.4
2021-04-08 05:00:00 41.5 54.1 26.1 38.5 41.5 4.6 5.5 4.8 0.4 357.5 0.00 0.0000000 53.7 58.3
2021-04-08 05:05:00 41.2 55.2 26.3 37.9 41.2 4.9 5.1 4.4 349.9 353.0 0.00 0.0000000 53.7 58.2
2021-04-08 05:10:00 41.7 54.1 26.3 38.8 41.7 4.6 5.1 4.7 8.5 356.7 0.00 0.0000000 53.6 58.2
2021-04-08 05:15:00 41.7 53.5 26.1 40.2 41.7 3.1 4.9 4.0 0.2 355.8 0.00 0.0000000 53.6 58.1
2021-04-08 05:20:00 41.6 54.0 26.2 41.6 41.6 2.6 3.5 3.1 3.0 3.6 0.00 0.0000000 53.5 58.0
2021-04-08 05:25:00 41.8 54.4 26.6 41.8 41.8 2.8 2.8 2.3 1.1 16.7 0.00 0.0000000 53.4 58.0
2021-04-08 05:30:00 41.6 53.4 25.9 41.6 41.6 2.8 3.3 2.9 4.5 7.5 0.00 0.0000000 53.3 57.9
2021-04-08 05:35:00 42.4 54.0 26.9 40.7 42.4 3.3 3.8 3.5 14.1 9.5 0.00 0.0000000 53.2 57.8
2021-04-08 05:40:00 43.3 52.9 27.2 43.3 43.3 1.9 3.8 2.8 32.5 18.9 0.00 0.0000000 53.2 57.8
2021-04-08 05:45:00 43.4 52.9 27.3 43.4 43.4 1.0 2.1 1.4 50.7 44.1 0.00 0.0000000 53.0 57.7
2021-04-08 05:50:00 43.3 53.7 27.7 41.8 43.3 3.3 3.3 2.0 24.4 28.9 0.00 0.0000000 53.0 57.7
2021-04-08 05:55:00 43.8 52.5 27.5 42.5 43.8 3.1 4.7 3.8 23.0 17.9 0.00 0.0000000 52.9 57.6
2021-04-08 06:00:00 43.8 52.4 27.5 43.8 43.8 2.1 3.3 2.5 35.2 34.1 0.00 0.0000000 52.8 57.5
2021-04-08 06:05:00 44.1 53.0 28.0 44.1 44.1 2.6 3.0 2.4 42.2 47.5 0.00 0.0000000 52.7 57.4
2021-04-08 06:10:00 44.2 52.4 27.9 44.2 44.2 1.9 3.0 2.4 16.6 26.0 0.00 0.0000000 52.7 57.3
2021-04-08 06:15:00 43.6 51.5 26.9 43.6 43.6 1.0 1.9 1.2 40.7 20.5 0.00 0.0000000 52.6 57.3
2021-04-08 06:20:00 42.7 54.4 27.4 42.7 42.7 2.2 2.6 2.0 50.8 35.2 0.00 0.0000000 52.5 57.2
2021-04-08 06:25:00 42.4 52.1 26.1 42.4 42.4 1.2 2.1 1.6 16.0 42.9 0.00 0.0000000 52.4 57.2
2021-04-08 06:30:00 41.9 55.4 27.1 41.9 41.9 0.0 1.0 0.1 32.3 22.9 0.00 0.0003495 52.4 57.1
2021-04-08 06:35:00 42.6 55.7 27.8 42.6 42.6 1.9 2.4 1.8 61.3 51.7 0.00 0.0020687 52.3 57.0
2021-04-08 06:40:00 42.4 52.0 26.0 42.4 42.4 0.0 1.9 1.0 38.7 71.9 0.00 0.0058027 52.3 57.0
2021-04-08 06:45:00 42.5 53.9 27.0 42.5 42.5 2.4 2.4 2.1 21.5 13.1 0.00 0.0086059 52.2 56.9
2021-04-08 06:50:00 42.7 55.0 27.7 42.7 42.7 2.6 2.6 2.0 47.7 39.2 0.00 0.0111964 52.1 56.8
2021-04-08 06:55:00 43.9 53.1 27.9 43.9 43.9 2.2 3.1 2.7 36.6 35.7 0.00 0.0192220 52.0 56.8
2021-04-08 07:00:00 44.6 50.4 27.3 44.6 44.6 2.2 2.2 1.8 50.9 47.7 0.00 0.0236322 52.0 56.7
2021-04-08 07:05:00 44.7 52.0 28.2 44.7 44.7 2.8 3.0 2.6 20.9 38.4 0.00 0.0285927 51.9 56.6
2021-04-08 07:10:00 45.2 51.2 28.2 45.2 45.2 1.9 3.3 2.6 44.3 27.5 0.00 0.0337486 51.9 56.6
2021-04-08 07:15:00 46.4 49.2 28.3 46.4 46.4 1.5 2.2 1.4 23.7 39.2 0.00 0.0386083 51.8 56.5
2021-04-08 07:20:00 46.8 49.9 29.1 46.8 46.8 2.6 2.8 2.2 53.2 36.2 0.00 0.0435686 51.8 56.4
2021-04-08 07:25:00 47.6 48.4 29.1 46.8 47.6 3.1 3.5 2.7 62.6 54.1 0.00 0.0487241 51.9 56.4
2021-04-08 07:30:00 47.9 47.5 28.9 47.9 47.9 3.0 3.8 3.3 58.4 51.9 0.00 0.0538049 51.9 56.4
2021-04-08 07:35:00 48.4 46.2 28.7 48.4 48.4 2.1 3.0 2.5 73.7 61.7 0.00 0.0588965 52.0 56.3
2021-04-08 07:40:00 49.2 45.7 29.1 49.2 49.2 2.2 3.3 2.1 96.0 81.3 0.00 0.0638359 52.1 56.3
2021-04-08 07:45:00 49.4 47.7 30.4 49.4 49.4 2.6 3.3 2.5 96.4 88.9 0.00 0.0690874 52.3 56.2
2021-04-08 07:50:00 50.2 46.6 30.5 50.2 50.2 2.4 3.8 2.6 130.7 108.5 0.00 0.0745153 52.4 56.2
2021-04-08 07:55:00 50.7 47.2 31.3 50.7 50.7 2.8 3.3 2.8 104.2 122.7 0.00 0.0794860 52.6 56.2
2021-04-08 08:00:00 51.3 47.0 31.7 51.3 51.3 4.4 4.6 3.5 123.5 117.7 0.00 0.0848888 52.9 56.2
2021-04-08 08:05:00 51.7 45.3 31.2 51.7 51.7 5.5 6.2 4.8 120.2 118.9 0.00 0.0904537 53.1 56.2
2021-04-08 08:10:00 52.0 44.0 30.7 52.0 52.0 6.0 7.2 5.4 118.5 113.8 0.00 0.0961786 53.4 56.3
2021-04-08 08:15:00 52.4 44.0 31.1 52.4 52.4 5.3 7.8 5.7 124.0 108.7 0.00 0.1018218 53.7 56.3
2021-04-08 08:20:00 52.9 42.7 30.8 52.9 52.9 6.0 7.6 5.3 111.2 108.8 0.00 0.1072471 54.0 56.4
2021-04-08 08:25:00 53.6 41.1 30.5 53.6 53.6 5.8 9.4 6.3 133.0 121.2 0.00 0.1127947 54.4 56.4
2021-04-08 08:30:00 53.9 38.8 29.4 53.9 53.9 8.8 9.4 7.1 132.7 126.3 0.00 0.1185032 54.7 56.5
2021-04-08 08:35:00 55.0 37.1 29.3 55.0 55.0 8.0 8.8 7.1 128.1 133.9 0.00 0.1240883 55.1 56.6
2021-04-08 08:40:00 55.1 37.0 29.3 55.1 55.1 8.3 9.9 8.1 156.2 142.4 0.00 0.1295812 55.5 56.6
2021-04-08 08:45:00 54.7 36.4 28.5 54.7 54.7 10.3 12.1 9.8 149.9 137.3 0.00 0.1349934 55.9 56.7
2021-04-08 08:50:00 54.8 37.7 29.4 54.8 54.8 9.6 10.6 8.5 137.7 140.8 0.00 0.1404118 56.2 56.8
2021-04-08 08:55:00 55.5 37.4 29.9 55.5 55.5 8.0 10.5 8.6 145.2 139.0 0.00 0.1459220 56.6 56.9
2021-04-08 09:00:00 55.6 36.9 29.6 55.6 55.6 8.8 12.8 10.0 144.8 160.1 0.00 0.1514546 57.0 57.1
2021-04-08 09:05:00 56.2 36.4 29.9 56.2 56.2 9.9 12.8 9.0 163.8 155.5 0.00 0.1518940 57.4 57.2
2021-04-08 09:10:00 56.1 36.8 30.0 56.1 56.1 10.8 14.2 10.2 167.5 173.4 0.00 0.1619984 57.9 57.3
2021-04-08 09:15:00 56.7 37.4 31.0 56.7 56.7 11.7 13.0 10.1 157.8 166.8 0.00 0.1670038 58.3 57.5
2021-04-08 09:20:00 57.0 37.2 31.1 57.0 57.0 9.9 11.7 9.9 177.4 159.2 0.00 0.1722748 58.7 57.6
2021-04-08 09:25:00 57.3 36.5 30.9 57.3 57.3 7.8 12.2 10.1 166.7 151.7 0.00 0.1779844 59.2 57.8
2021-04-08 09:30:00 57.7 35.6 30.6 57.7 57.7 11.3 12.1 9.9 170.0 164.7 0.00 0.1830856 59.6 57.9
2021-04-08 09:35:00 57.8 35.8 30.9 57.8 57.8 9.9 12.4 10.1 154.3 155.5 0.00 0.1878973 60.1 58.1
2021-04-08 09:40:00 58.3 33.4 29.7 58.3 58.3 11.2 12.4 10.2 153.8 164.2 0.00 0.1930109 60.5 58.3
2021-04-08 09:45:00 58.5 32.8 29.3 58.5 58.5 6.9 13.0 9.9 154.3 154.5 0.00 0.1976575 61.0 58.4
2021-04-08 09:50:00 58.9 32.9 29.8 58.9 58.9 10.5 12.4 9.7 180.5 169.7 0.00 0.2027293 61.5 58.6
2021-04-08 09:55:00 58.9 30.6 27.9 58.9 58.9 9.7 13.3 10.0 170.2 165.2 0.00 0.2076860 62.0 58.8
2021-04-08 10:00:00 59.2 29.5 27.4 59.2 59.2 10.8 13.9 10.9 162.3 162.8 0.00 0.2121667 62.5 59.0
2021-04-08 10:05:00 60.0 30.1 28.6 60.0 60.0 10.3 11.3 8.9 155.8 148.5 0.00 0.2166211 62.9 59.2
2021-04-08 10:10:00 60.5 28.9 27.9 60.5 60.5 6.9 12.1 9.4 169.1 163.7 0.00 0.2216507 63.4 59.4
2021-04-08 10:15:00 60.6 28.2 27.5 60.6 60.6 11.5 11.9 8.6 167.6 161.6 0.00 0.2256960 63.9 59.6
2021-04-08 10:20:00 61.0 28.4 28.0 61.0 61.0 6.5 12.1 8.8 180.4 169.2 0.00 0.2296271 64.4 59.9
2021-04-08 10:25:00 61.8 26.6 27.0 61.8 61.8 10.6 10.6 8.0 138.5 153.2 0.00 0.2340187 65.0 60.1
2021-04-08 10:30:00 62.1 26.3 27.1 62.1 62.1 6.5 11.0 8.8 166.2 160.0 0.00 0.2380388 65.5 60.3
2021-04-08 10:35:00 62.8 27.2 28.5 62.8 62.8 11.7 12.6 8.3 157.7 157.0 0.00 0.2421570 66.0 60.5
2021-04-08 10:40:00 62.5 26.5 27.6 62.5 62.5 10.3 13.3 9.6 183.5 172.6 0.00 0.2453250 66.5 60.8
2021-04-08 10:45:00 62.2 24.7 25.7 62.2 62.2 4.7 12.1 8.0 189.3 185.8 0.00 0.2488831 66.9 61.0
2021-04-08 10:50:00 63.6 23.2 25.3 63.6 63.6 4.6 10.3 7.5 205.1 178.2 0.00 0.2527332 67.3 61.3
2021-04-08 10:55:00 64.3 23.7 26.3 64.3 64.3 9.6 10.8 7.6 200.0 187.4 0.00 0.2568303 67.7 61.5
2021-04-08 11:00:00 64.6 24.0 26.9 64.6 64.6 4.6 10.3 6.5 194.8 174.6 0.00 0.2601948 68.2 61.8
2021-04-08 11:05:00 64.4 23.1 25.8 64.4 64.4 6.0 10.8 7.4 206.6 198.7 0.00 0.2635700 68.6 62.1
2021-04-08 11:10:00 64.8 21.6 24.6 64.8 64.8 4.9 9.4 6.1 178.1 194.7 0.00 0.2660227 69.0 62.3
2021-04-08 11:15:00 64.9 21.9 25.0 64.9 64.9 6.9 9.7 7.1 208.9 205.1 0.00 0.2693120 69.4 62.6
2021-04-08 11:20:00 65.6 24.0 27.8 65.6 65.6 8.7 13.3 9.3 222.7 204.3 0.00 0.2725321 69.9 62.9
2021-04-08 11:25:00 66.1 21.6 25.7 66.1 66.1 12.4 12.4 6.8 179.6 234.5 0.00 0.2756519 70.4 63.2
2021-04-08 11:30:00 65.8 20.6 24.4 65.8 65.8 7.6 15.1 9.5 175.4 171.9 0.00 0.2769526 70.9 63.5
2021-04-08 11:35:00 66.3 18.3 21.9 66.3 66.3 7.4 12.2 8.5 199.5 210.4 0.00 0.2798196 71.2 63.8
2021-04-08 11:40:00 66.4 19.6 23.6 66.4 66.4 7.2 14.0 8.7 230.7 223.9 0.00 0.2825401 71.5 64.1
2021-04-08 11:45:00 67.4 21.1 26.2 67.4 67.4 8.5 12.2 8.2 213.0 203.8 0.00 0.2846023 71.8 64.4
2021-04-08 11:50:00 68.8 18.9 24.7 68.8 68.8 12.6 15.3 8.0 216.1 213.0 0.00 0.2869124 72.2 64.7
2021-04-08 11:55:00 69.0 17.2 22.6 69.0 69.0 7.6 12.8 10.0 214.3 199.7 0.00 0.2886848 72.7 65.0
2021-04-08 12:00:00 68.8 16.7 21.8 68.8 68.8 8.0 13.0 8.9 193.1 197.1 0.00 0.2904903 73.2 65.3
2021-04-08 12:05:00 68.7 19.2 25.0 68.7 68.7 5.3 15.8 9.3 254.8 196.7 0.00 0.2919138 73.7 65.6
2021-04-08 12:10:00 69.7 15.8 21.3 69.7 69.7 12.2 16.9 11.6 200.7 190.3 0.00 0.2925583 74.2 65.9
2021-04-08 12:15:00 70.3 15.9 21.8 70.3 70.3 8.1 12.2 9.5 221.1 210.9 0.00 0.2944391 74.7 66.2
2021-04-08 12:20:00 70.1 15.3 20.7 70.1 70.1 8.8 12.8 9.3 185.6 205.6 0.00 0.2945336 75.3 66.5
2021-04-08 12:25:00 70.1 12.9 16.7 70.1 70.1 7.4 11.9 9.6 196.4 211.5 0.00 0.2967403 75.8 66.7
2021-04-08 12:30:00 71.1 12.1 16.0 71.1 71.1 7.1 14.2 9.3 196.4 211.0 0.00 0.2977673 76.3 67.0
2021-04-08 12:35:00 70.4 14.5 19.6 70.4 70.4 5.8 12.1 9.1 221.1 203.0 0.00 0.2981873 76.8 67.3
2021-04-08 12:40:00 71.3 12.4 16.8 71.3 71.3 5.8 10.1 7.3 212.5 225.7 0.00 0.2992980 77.3 67.5
2021-04-08 12:45:00 71.8 11.1 14.7 71.8 71.8 10.5 15.6 10.7 234.1 211.4 0.00 0.2989604 77.8 67.7
2021-04-08 12:50:00 72.4 13.7 20.0 72.4 72.4 8.3 13.5 9.2 231.6 234.7 0.00 0.2989930 78.3 68.0
2021-04-08 12:55:00 73.2 10.6 14.6 73.2 73.2 9.0 10.5 8.0 253.1 204.2 0.00 0.2993340 78.8 68.2
2021-04-08 13:00:00 74.0 10.9 15.8 74.0 74.0 5.3 10.8 6.9 216.7 253.5 0.00 0.2997470 79.2 68.4
2021-04-08 13:05:00 73.0 11.3 16.1 73.0 73.0 11.7 13.0 9.7 214.8 211.3 0.00 0.2988535 79.7 68.6
2021-04-08 13:10:00 73.2 8.7 10.1 73.2 73.2 13.7 13.7 10.3 243.3 234.0 0.00 0.2991525 80.2 68.8
2021-04-08 13:15:00 72.5 8.8 9.8 72.5 72.5 6.9 16.4 9.8 285.7 255.1 0.00 0.2990957 80.6 69.0
2021-04-08 13:20:00 73.0 9.1 11.0 73.0 73.0 8.1 14.7 9.4 253.3 269.1 0.00 0.2985138 81.0 69.3
2021-04-08 13:25:00 73.4 8.5 9.7 73.4 73.4 13.0 16.4 11.7 248.3 271.6 0.00 0.2979525 81.4 69.5
2021-04-08 13:30:00 74.1 8.2 9.4 74.1 74.1 15.1 15.1 9.3 275.3 244.4 0.00 0.2978911 81.7 69.7
2021-04-08 13:35:00 73.2 8.8 10.4 73.2 73.2 6.0 16.0 10.4 283.5 286.4 0.00 0.2997166 82.1 70.0
2021-04-08 13:40:00 73.9 9.0 11.4 73.9 73.9 12.2 17.6 9.3 192.5 250.9 0.00 0.2950366 82.4 70.3
2021-04-08 13:45:00 73.0 11.2 15.8 73.0 73.0 7.1 12.2 9.3 217.3 219.2 0.00 0.2984294 82.7 70.5
2021-04-08 13:50:00 74.0 12.3 18.6 74.0 74.0 11.2 21.2 10.9 221.2 223.8 0.00 0.2750980 83.0 70.7
2021-04-08 13:55:00 74.2 11.1 16.6 74.2 74.2 8.7 13.7 9.4 197.3 218.6 0.00 0.2791565 83.3 71.0
2021-04-08 14:00:00 74.3 9.2 12.2 74.3 74.3 9.0 14.2 9.8 227.8 228.0 0.00 0.2677164 83.6 71.2
2021-04-08 14:05:00 75.1 8.5 11.1 75.1 75.1 12.6 13.5 8.8 179.6 242.4 0.00 0.2549046 83.9 71.4
2021-04-08 14:10:00 74.5 7.6 8.3 74.5 74.5 6.0 17.6 11.0 260.6 236.8 0.00 0.2715219 84.1 71.7
2021-04-08 14:15:00 76.5 7.4 9.2 76.5 76.5 9.6 23.0 13.6 238.1 233.9 0.00 0.3155754 84.2 71.9
2021-04-08 14:20:00 77.2 7.5 9.9 77.2 77.2 11.9 19.4 12.5 222.9 243.9 0.00 0.3040667 84.4 72.2
2021-04-08 14:25:00 75.9 7.1 7.7 75.9 75.9 21.5 23.2 17.5 266.5 238.7 0.00 0.2344477 84.6 72.4
2021-04-08 14:30:00 75.7 7.1 7.6 75.7 75.7 14.0 19.0 13.1 272.8 271.0 0.00 0.2386167 84.8 72.6
2021-04-08 14:35:00 75.9 7.8 9.7 75.9 75.9 7.4 15.8 10.8 237.4 254.8 0.00 0.2819938 84.9 72.8
2021-04-08 14:40:00 77.8 7.1 9.0 77.8 77.8 14.7 15.3 10.7 275.6 262.9 0.00 0.2649086 84.9 73.0
2021-04-08 14:45:00 77.8 7.2 9.5 77.8 77.8 14.7 18.9 14.0 290.3 272.7 0.00 0.2642554 85.0 73.2
2021-04-08 14:50:00 76.9 7.7 10.1 76.9 76.9 19.6 23.0 18.7 258.9 262.4 0.00 0.2687480 85.1 73.4
2021-04-08 14:55:00 77.0 7.6 10.1 77.0 77.0 12.6 20.6 14.2 259.7 259.7 0.00 0.2651556 85.2 73.5
2021-04-08 15:00:00 76.6 7.6 9.8 76.6 76.6 11.0 15.3 11.8 287.4 277.5 0.00 0.2624734 85.3 73.7
2021-04-08 15:05:00 76.9 7.9 10.7 76.9 76.9 15.8 18.3 13.3 265.4 244.1 0.00 0.2594432 85.4 73.9
2021-04-08 15:10:00 76.5 7.8 10.1 76.5 76.5 18.1 18.1 11.7 286.0 266.8 0.00 0.2533545 85.4 74.0
2021-04-08 15:15:00 76.8 7.7 10.2 76.8 76.8 11.7 20.1 14.1 245.7 263.9 0.00 0.2477848 85.5 74.2
2021-04-08 15:20:00 76.9 8.0 11.0 76.9 76.9 8.3 21.5 15.6 274.5 271.1 0.00 0.2433946 85.6 74.3
2021-04-08 15:25:00 77.8 7.4 10.1 77.8 77.8 13.7 16.4 11.5 269.0 271.2 0.00 0.2401218 85.6 74.4
2021-04-08 15:30:00 76.7 7.7 10.2 76.7 76.7 4.7 22.1 12.8 277.6 259.8 0.00 0.2369367 85.7 74.5
2021-04-08 15:35:00 77.5 9.5 15.4 77.5 77.5 12.6 14.4 7.8 222.2 245.0 0.00 0.2346481 85.7 74.7
2021-04-08 15:40:00 77.4 8.3 12.1 77.4 77.4 13.3 19.9 13.0 247.5 233.9 0.00 0.2235899 85.8 74.8
2021-04-08 15:45:00 77.6 7.5 10.3 77.6 77.6 7.1 14.6 11.1 239.7 258.0 0.00 0.2252107 85.9 74.9
2021-04-08 15:50:00 78.1 11.7 20.8 78.1 78.1 10.3 12.1 7.8 225.6 237.2 0.00 0.2220555 85.9 74.9
2021-04-08 15:55:00 77.5 10.1 16.8 77.5 77.5 11.2 16.0 12.6 216.2 228.9 0.00 0.2169898 86.0 75.0
2021-04-08 16:00:00 78.5 9.0 15.0 78.5 78.5 7.8 18.5 11.7 232.2 232.2 0.00 0.2111156 86.0 75.0
2021-04-08 16:05:00 78.3 9.5 16.1 78.3 78.3 14.0 19.0 12.2 234.5 225.2 0.00 0.2064608 86.1 75.1
2021-04-08 16:10:00 77.8 10.7 18.4 77.8 77.8 12.8 25.5 15.9 229.4 218.8 0.00 0.2042771 86.1 75.1
2021-04-08 16:15:00 78.4 8.5 13.5 78.4 78.4 15.5 18.3 13.0 226.5 233.1 0.00 0.1859961 86.1 75.1
2021-04-08 16:20:00 78.5 7.7 11.3 78.5 78.5 12.2 15.6 12.8 269.1 254.1 0.00 0.1721210 86.1 75.1
2021-04-08 16:25:00 78.1 7.4 10.3 78.1 78.1 15.1 19.0 11.7 263.0 249.0 0.00 0.1134603 86.0 75.2
2021-04-08 16:30:00 80.7 8.4 15.0 80.7 80.7 19.2 26.7 17.7 237.6 246.4 0.00 0.2083393 85.9 75.2
2021-04-08 16:35:00 80.3 6.9 10.1 80.3 80.3 25.1 33.5 23.2 262.8 243.0 0.00 0.1916029 85.7 75.3
2021-04-08 16:40:00 80.2 7.0 10.4 80.2 80.2 19.4 28.0 19.9 251.9 256.3 0.00 0.1838504 85.5 75.3
2021-04-08 16:45:00 80.3 6.9 10.2 80.3 80.3 24.4 28.9 21.4 262.9 258.6 0.00 0.1716084 85.4 75.3
2021-04-08 16:50:00 79.6 7.3 11.0 79.6 79.6 19.8 27.1 21.0 247.9 246.7 0.00 0.1705670 85.2 75.4
2021-04-08 16:55:00 80.2 7.0 10.6 80.2 80.2 17.6 26.5 21.7 254.1 246.9 0.00 0.1672770 85.1 75.4
2021-04-08 17:00:00 78.4 8.3 13.0 78.4 78.4 22.1 29.4 20.5 247.2 233.2 0.00 0.1519241 84.8 75.5
2021-04-08 17:05:00 79.5 6.9 9.5 79.5 79.5 19.2 25.8 21.0 248.9 245.8 0.00 0.1406724 84.6 75.5
2021-04-08 17:10:00 79.8 7.1 10.6 79.8 79.8 16.0 21.7 17.9 245.7 249.5 0.00 0.1338239 84.4 75.5
2021-04-08 17:15:00 79.3 7.3 10.8 79.3 79.3 21.2 24.9 20.2 239.7 238.4 0.00 0.1259309 84.2 75.5
2021-04-08 17:20:00 79.1 7.4 11.0 79.1 79.1 16.9 27.4 19.8 248.8 240.0 0.00 0.1266819 84.0 75.5
2021-04-08 17:25:00 78.9 7.1 10.0 78.9 78.9 25.5 29.4 22.5 267.4 256.0 0.00 0.0925891 83.7 75.5
2021-04-08 17:30:00 78.1 7.6 10.9 78.1 78.1 18.1 25.3 20.2 246.3 260.4 0.00 0.0445648 83.5 75.5
2021-04-08 17:35:00 77.5 7.4 9.8 77.5 77.5 17.6 23.0 19.4 263.0 252.9 0.00 0.0511464 83.2 75.5
2021-04-08 17:40:00 78.4 7.1 9.6 78.4 78.4 21.4 30.3 21.3 271.4 262.1 0.00 0.0952248 82.8 75.5
2021-04-08 17:45:00 79.1 7.1 10.0 79.1 79.1 20.6 22.4 18.1 273.5 266.8 0.00 0.1119374 82.4 75.4
2021-04-08 17:50:00 78.9 7.2 10.3 78.9 78.9 19.4 28.0 21.1 293.4 275.8 0.00 0.0779015 82.0 75.4
2021-04-08 17:55:00 77.5 7.3 9.4 77.5 77.5 19.6 25.6 20.3 273.0 270.0 0.00 0.0387217 81.7 75.3
2021-04-08 18:00:00 77.1 7.3 9.3 77.1 77.1 22.4 27.4 22.1 276.2 272.7 0.00 0.0338334 81.4 75.3
2021-04-08 18:05:00 76.7 7.4 9.2 76.7 76.7 17.8 25.6 20.2 263.6 270.7 0.00 0.0325745 81.0 75.2
2021-04-08 18:10:00 76.7 7.2 8.5 76.7 76.7 22.1 25.3 20.7 274.1 267.8 0.00 0.0298463 80.6 75.1
2021-04-08 18:15:00 76.4 7.4 8.9 76.4 76.4 17.2 29.9 21.8 270.0 270.0 0.00 0.0237542 80.2 75.0
2021-04-08 18:20:00 75.8 7.6 9.1 75.8 75.8 20.6 23.5 18.8 259.3 263.9 0.00 0.0185765 79.8 74.9
2021-04-08 18:25:00 75.7 7.8 9.8 75.7 75.7 22.1 23.3 18.6 271.6 268.1 0.00 0.0192485 79.4 74.8
2021-04-08 18:30:00 75.3 8.3 10.7 75.3 75.3 17.1 19.6 16.7 272.7 274.7 0.00 0.0185572 79.0 74.7
2021-04-08 18:35:00 75.1 8.5 11.0 75.1 75.1 13.1 19.6 15.3 275.7 270.5 0.00 0.0162372 78.6 74.6
2021-04-08 18:40:00 75.0 8.6 11.3 75.0 75.0 14.0 19.4 14.8 259.5 267.7 0.00 0.0141474 78.2 74.5
2021-04-08 18:45:00 74.7 8.8 11.6 74.7 74.7 14.0 17.2 14.2 258.1 265.4 0.00 0.0110866 77.8 74.3
2021-04-08 18:50:00 74.2 9.0 11.8 74.2 74.2 11.0 14.6 12.2 264.5 264.1 0.00 0.0088652 77.5 74.2
2021-04-08 18:55:00 73.9 9.0 11.5 73.9 73.9 13.1 14.4 11.9 266.6 265.8 0.00 0.0071196 77.1 74.1
2021-04-08 19:00:00 73.7 9.3 12.1 73.7 73.7 8.8 14.9 11.8 274.0 271.1 0.00 0.0054603 76.8 73.9
2021-04-08 19:05:00 72.8 9.8 12.5 72.8 72.8 8.7 11.3 9.5 277.8 272.9 0.00 0.0037425 76.4 73.8
2021-04-08 19:10:00 71.9 10.0 12.3 71.9 71.9 8.0 9.7 8.5 281.4 276.1 0.00 0.0021361 76.1 73.7
2021-04-08 19:15:00 71.0 10.4 12.6 71.0 71.0 6.9 8.7 7.8 281.8 277.9 0.00 0.0003685 75.8 73.5
2021-04-08 19:20:00 70.4 10.6 12.6 70.4 70.4 6.7 9.0 7.9 286.5 278.7 0.00 0.0000000 75.4 73.4
2021-04-08 19:25:00 69.7 11.0 12.8 69.7 69.7 7.4 8.1 7.2 282.0 278.6 0.00 0.0000000 75.1 73.2
2021-04-08 19:30:00 68.8 11.5 13.2 68.8 68.8 5.8 7.4 6.3 284.7 278.8 0.00 0.0000000 74.7 73.1
2021-04-08 19:35:00 68.0 12.0 13.4 68.0 68.0 6.0 6.7 6.0 278.0 278.0 0.00 0.0000000 74.4 72.9
2021-04-08 19:40:00 67.4 12.3 13.5 67.4 67.4 6.0 6.3 5.8 290.2 282.7 0.00 0.0000000 74.1 72.8
2021-04-08 19:45:00 66.9 12.4 13.4 66.9 66.9 5.5 6.5 5.8 301.1 289.7 0.00 0.0000000 73.7 72.6
2021-04-08 19:50:00 66.8 12.7 13.8 66.8 66.8 5.5 6.3 5.8 290.2 294.3 0.00 0.0000000 73.4 72.5
2021-04-08 19:55:00 66.8 12.8 14.0 66.8 66.8 5.8 6.3 5.6 295.3 291.0 0.00 0.0000000 73.1 72.3
2021-04-08 20:00:00 66.7 12.9 14.1 66.7 66.7 5.6 6.2 5.7 294.0 291.9 0.00 0.0000000 72.8 72.2
2021-04-08 20:05:00 66.6 13.0 14.2 66.6 66.6 5.6 6.3 5.5 292.5 292.1 0.00 0.0000000 72.5 72.0
2021-04-08 20:10:00 66.5 13.1 14.2 66.5 66.5 4.7 5.5 4.9 284.7 285.3 0.00 0.0000000 72.2 71.8
2021-04-08 20:15:00 66.3 13.3 14.4 66.3 66.3 4.9 5.5 4.9 284.5 284.6 0.00 0.0000000 72.0 71.7
2021-04-08 20:20:00 66.3 13.2 14.4 66.3 66.3 4.4 5.1 4.5 268.5 278.0 0.00 0.0000000 71.7 71.5
2021-04-08 20:25:00 65.9 13.5 14.5 65.9 65.9 4.2 4.6 4.3 285.3 281.0 0.00 0.0000000 71.5 71.4
2021-04-08 20:30:00 64.8 20.3 23.1 64.8 64.8 5.6 6.2 3.8 186.5 254.4 0.00 0.0000000 71.3 71.3
2021-04-08 20:35:00 63.2 19.4 20.6 63.2 63.2 6.2 6.3 5.8 195.3 196.9 0.00 0.0000000 71.1 71.1
2021-04-08 20:40:00 63.0 17.7 18.4 63.0 63.0 3.0 7.1 4.7 146.8 188.7 0.00 0.0000000 70.9 71.0
2021-04-08 20:45:00 62.5 18.5 19.0 62.5 62.5 7.4 7.4 5.6 183.5 180.3 0.00 0.0000000 70.7 70.8
2021-04-08 20:50:00 63.6 16.8 17.7 63.6 63.6 4.9 6.7 5.7 192.5 203.1 0.00 0.0000000 70.4 70.7
2021-04-08 20:55:00 63.8 20.3 22.3 63.8 63.8 4.0 4.9 4.1 183.4 192.9 0.00 0.0000000 70.3 70.6
2021-04-08 21:00:00 63.5 18.5 19.8 63.5 63.5 3.3 4.0 2.7 278.3 205.9 0.00 0.0000000 70.1 70.4
2021-04-08 21:05:00 63.4 18.2 19.4 63.4 63.4 5.6 5.6 4.0 199.9 230.1 0.00 0.0000000 69.9 70.3
2021-04-08 21:10:00 62.9 19.7 20.8 62.9 62.9 3.8 5.6 4.9 228.0 214.2 0.00 0.0000000 69.7 70.2
2021-04-08 21:15:00 63.2 15.6 15.7 63.2 63.2 5.1 5.1 4.0 277.7 250.7 0.00 0.0000000 69.5 70.1
2021-04-08 21:20:00 63.6 14.6 14.5 63.6 63.6 4.7 6.3 5.1 249.2 258.9 0.00 0.0000000 69.4 70.0
2021-04-08 21:25:00 63.6 14.3 14.0 63.6 63.6 6.0 6.2 5.1 251.1 264.7 0.00 0.0000000 69.2 69.9
2021-04-08 21:30:00 64.0 14.7 14.8 64.0 64.0 4.2 6.9 5.3 242.7 249.7 0.00 0.0000000 69.0 69.7
2021-04-08 21:35:00 62.6 16.5 16.5 62.6 62.6 4.4 4.7 4.4 252.9 238.1 0.00 0.0000000 68.8 69.6
2021-04-08 21:40:00 62.0 16.0 15.2 62.0 62.0 4.9 5.3 4.5 244.2 250.4 0.00 0.0000000 68.6 69.5
2021-04-08 21:45:00 61.3 16.6 15.5 61.3 61.3 4.6 5.3 4.8 247.0 244.5 0.00 0.0000000 68.4 69.4
2021-04-08 21:50:00 61.4 16.2 15.1 61.4 61.4 4.4 4.9 4.6 238.2 244.8 0.00 0.0000000 68.2 69.3
2021-04-08 21:55:00 61.8 16.4 15.6 61.8 61.8 4.9 5.3 4.8 253.3 248.2 0.00 0.0000000 68.0 69.1
2021-04-08 22:00:00 61.9 16.4 15.7 61.9 61.9 5.1 5.8 5.3 263.6 253.8 0.00 0.0000000 67.9 69.0
2021-04-08 22:05:00 61.4 17.4 16.6 61.4 61.4 4.7 4.9 4.0 268.3 273.5 0.00 0.0000000 67.7 68.9
2021-04-08 22:10:00 61.5 17.5 16.9 61.5 61.5 3.7 4.9 4.3 274.0 274.7 0.00 0.0000000 67.5 68.8
2021-04-08 22:15:00 61.4 17.1 16.4 61.4 61.4 4.2 4.6 4.1 275.2 273.0 0.00 0.0000000 67.4 68.7
2021-04-08 22:20:00 61.3 17.4 16.6 61.3 61.3 4.6 4.9 4.4 269.5 269.6 0.00 0.0000000 67.2 68.6
2021-04-08 22:25:00 61.2 17.2 16.2 61.2 61.2 4.6 5.3 4.8 276.7 271.3 0.00 0.0000000 67.1 68.5
2021-04-08 22:30:00 61.1 17.3 16.4 61.1 61.1 5.1 5.1 4.7 277.1 274.1 0.00 0.0000000 67.0 68.3
2021-04-08 22:35:00 61.4 17.5 16.8 61.4 61.4 3.7 5.1 4.5 285.6 280.2 0.00 0.0000000 66.8 68.2
2021-04-08 22:40:00 61.3 18.7 18.3 61.3 61.3 3.8 4.4 3.6 274.6 276.8 0.00 0.0000000 66.7 68.1
2021-04-08 22:45:00 61.1 18.4 17.7 61.1 61.1 6.3 6.7 5.5 253.6 277.2 0.00 0.0000000 66.6 68.0
2021-04-08 22:50:00 64.7 14.8 15.7 64.7 64.7 9.4 9.9 6.1 322.3 256.8 0.00 0.0000632 66.5 67.9
2021-04-08 22:55:00 67.3 15.4 18.6 67.3 67.3 8.7 9.7 7.4 231.4 271.0 0.00 0.0000312 66.3 67.8
2021-04-08 23:00:00 66.0 14.6 16.3 66.0 66.0 6.5 9.4 7.5 264.0 249.6 0.00 0.0000000 66.2 67.7
2021-04-08 23:05:00 66.6 13.7 15.4 66.6 66.6 11.7 16.0 9.1 286.4 290.2 0.00 0.0000000 66.1 67.7
2021-04-08 23:10:00 67.9 13.8 16.5 67.9 67.9 12.2 17.6 11.8 287.8 289.2 0.00 0.0000000 66.1 67.6
2021-04-08 23:15:00 73.9 10.9 15.7 73.9 73.9 16.4 28.5 18.7 287.8 284.5 0.00 0.0000761 66.0 67.4
2021-04-08 23:20:00 73.2 11.0 15.6 73.2 73.2 20.1 23.2 15.8 265.4 278.3 0.00 0.0000000 65.9 67.4
2021-04-08 23:25:00 74.3 10.4 15.0 74.3 74.3 12.4 19.2 12.0 277.9 257.6 0.00 0.0000000 65.9 67.3
2021-04-08 23:30:00 72.3 11.6 16.0 72.3 72.3 9.6 13.9 8.1 275.2 284.6 0.00 0.0000000 65.9 67.2
2021-04-08 23:35:00 72.4 11.6 16.2 72.4 72.4 6.2 10.3 8.6 285.0 294.3 0.00 0.0000000 66.0 67.2
2021-04-08 23:40:00 70.7 12.5 16.6 70.7 70.7 8.7 9.7 7.1 271.4 274.4 0.00 0.0000000 66.0 67.1
2021-04-08 23:45:00 69.2 13.8 17.5 69.2 69.2 5.8 9.0 7.0 271.4 285.2 0.00 0.0000000 66.0 67.0
2021-04-08 23:50:00 67.4 14.0 16.6 67.4 67.4 8.5 11.5 8.7 264.0 257.5 0.00 0.0000000 65.9 67.0
2021-04-08 23:55:00 65.8 15.3 17.3 65.8 65.8 6.3 10.1 7.3 298.3 271.9 0.00 0.0000000 65.9 66.9
2021-04-09 00:00:00 64.4 16.7 18.1 64.4 64.4 6.7 7.8 6.0 325.6 299.9 0.00 0.0000000 65.9 66.9

Data is courtesy of the NM Climate Center. DO NOT USE IN LEGAL PROCEEDINGS.